Time;durP1;ratioP1;P1;durP2;ratioP2;P2;SDS_P1;SDS_P2;PMS_P1;PMS_P2;Temp;Humidity;BMP_temperature;BMP_pressure;BME280_temperature;BME280_humidity;BME280_pressure;Samples;Min_cycle;Max_cycle;Signal;HPM_P1;HPM_P2
2023/07/08 00:00:23;;;;;;;2.42;1.90;;;17.60;99.90;;;;;;5017174;28;20057;-73
2023/07/08 00:02:49;;;;;;;3.33;2.05;;;17.60;99.90;;;;;;5030762;28;20049;-73
2023/07/08 00:05:15;;;;;;;;;;;17.50;99.90;;;;;;5039011;28;20524;-73
2023/07/08 00:07:42;;;;;;;2.80;1.70;;;17.50;99.90;;;;;;5030638;28;19916;-73
2023/07/08 00:10:17;;;;;;;3.00;1.73;;;17.50;99.90;;;;;;5021378;28;20051;-74
2023/07/08 00:12:44;;;;;;;2.55;1.70;;;17.40;99.90;;;;;;5017565;28;20194;-74
2023/07/08 00:15:11;;;;;;;3.05;1.80;;;17.40;99.90;;;;;;5037003;28;20553;-73
2023/07/08 00:17:36;;;;;;;;;;;17.30;99.90;;;;;;5031665;28;20045;-74
2023/07/08 00:20:14;;;;;;;3.22;1.90;;;17.30;99.90;;;;;;5035392;28;19970;-73
2023/07/08 00:22:41;;;;;;;2.13;1.60;;;17.40;99.90;;;;;;5031830;28;20037;-73
2023/07/08 00:25:09;;;;;;;2.65;1.60;;;17.30;1.00;;;;;;5031357;28;20033;-74
2023/07/08 00:27:34;;;;;;;3.03;2.00;;;17.30;99.90;;;;;;5030048;28;20041;-74
2023/07/08 00:30:00;;;;;;;2.47;1.65;;;17.30;99.90;;;;;;5033002;28;20048;-74
2023/07/08 00:32:26;;;;;;;2.22;1.67;;;17.30;1.00;;;;;;5035298;28;20576;-74
2023/07/08 00:34:51;;;;;;;2.92;2.17;;;17.30;1.00;;;;;;5032597;28;20449;-74
2023/07/08 00:37:17;;;;;;;2.47;1.92;;;17.30;99.90;;;;;;5029969;28;20057;-74
2023/07/08 00:39:43;;;;;;;2.72;2.13;;;17.30;99.90;;;;;;5030288;28;20049;-74
2023/07/08 00:42:21;;;;;;;3.10;1.95;;;17.20;99.90;;;;;;5030849;28;20122;-74
2023/07/08 00:44:48;;;;;;;3.38;2.35;;;17.20;99.90;;;;;;5032198;28;20052;-73
2023/07/08 00:47:15;;;;;;;2.78;1.98;;;17.20;99.90;;;;;;5042447;28;20045;-74
2023/07/08 00:49:55;;;;;;;3.15;2.03;;;17.20;99.90;;;;;;5029907;28;20053;-74
2023/07/08 00:52:29;;;;;;;2.85;2.30;;;17.10;99.90;;;;;;5025841;28;20410;-74
2023/07/08 00:54:58;;;;;;;3.35;1.90;;;17.20;1.00;;;;;;5032687;28;20047;-74
2023/07/08 00:57:29;;;;;;;3.63;2.08;;;17.10;1.00;;;;;;5042692;28;20566;-74
2023/07/08 01:00:24;;;;;;;3.22;2.22;;;17.10;1.00;;;;;;5029634;28;20144;-74
2023/07/08 01:02:55;;;;;;;3.15;1.67;;;17.10;1.00;;;;;;5026076;28;20049;-74
2023/07/08 01:05:25;;;;;;;3.67;2.05;;;17.10;1.00;;;;;;5031669;28;20069;-74
2023/07/08 01:07:55;;;;;;;2.20;1.95;;;17.10;1.00;;;;;;5032540;28;20040;-74
2023/07/08 01:10:47;;;;;;;3.67;2.00;;;17.00;1.00;;;;;;5024744;28;20041;-74
2023/07/08 01:13:15;;;;;;;3.40;2.10;;;17.00;1.00;;;;;;5038455;28;20037;-74
2023/07/08 01:15:44;;;;;;;4.03;1.77;;;17.00;1.00;;;;;;5034906;28;20077;-74
2023/07/08 01:18:11;;;;;;;3.60;2.20;;;17.00;1.00;;;;;;5033000;28;20054;-74
2023/07/08 01:20:38;;;;;;;4.93;2.20;;;17.00;1.00;;;;;;5030325;28;20416;-75
2023/07/08 01:23:04;;;;;;;3.13;2.10;;;17.00;1.00;;;;;;5041474;28;20566;-74
2023/07/08 01:25:31;;;;;;;3.92;1.80;;;17.00;1.00;;;;;;5033627;28;20071;-74
2023/07/08 01:27:57;;;;;;;2.95;1.95;;;17.00;1.00;;;;;;5015512;28;20407;-74
2023/07/08 01:30:23;;;;;;;2.10;1.70;;;17.00;1.00;;;;;;5029348;28;20045;-74
2023/07/08 01:32:55;;;;;;;5.65;2.30;;;16.90;1.00;;;;;;5028993;28;20044;-74
2023/07/08 01:35:21;;;;;;;4.00;2.38;;;16.90;1.00;;;;;;5032189;28;20083;-74
2023/07/08 01:38:08;;;;;;;2.78;1.83;;;16.90;1.00;;;;;;5030839;28;20033;-74
2023/07/08 01:40:38;;;;;;;4.07;2.55;;;16.90;1.00;;;;;;5028585;28;20448;-74
2023/07/08 01:43:05;;;;;;;2.92;2.22;;;16.90;1.00;;;;;;4998975;28;20069;-75
2023/07/08 01:45:41;;;;;;;2.50;1.92;;;16.90;54.10;;;;;;5033173;28;20037;-74
2023/07/08 01:48:11;;;;;;;2.40;2.10;;;16.90;25.60;;;;;;5013269;28;20056;-74
2023/07/08 01:50:43;;;;;;;2.60;1.70;;;16.80;74.10;;;;;;5030400;28;20045;-74
2023/07/08 01:53:14;;;;;;;2.25;1.60;;;16.80;99.90;;;;;;5033856;28;20052;-75
2023/07/08 01:55:40;;;;;;;2.22;1.60;;;16.70;99.90;;;;;;5034313;28;20080;-75
2023/07/08 01:58:06;;;;;;;2.58;1.58;;;16.70;99.90;;;;;;5036890;28;20069;-75
2023/07/08 02:00:31;;;;;;;2.58;1.60;;;16.70;99.90;;;;;;5009421;28;20621;-75
2023/07/08 02:02:57;;;;;;;1.77;1.60;;;16.60;99.90;;;;;;5032013;28;20724;-75
2023/07/08 02:05:23;;;;;;;2.17;1.42;;;16.60;99.90;;;;;;5030161;28;20447;-75
2023/07/08 02:07:49;;;;;;;2.10;1.45;;;16.60;99.90;;;;;;5033755;28;20046;-75
2023/07/08 02:10:15;;;;;;;2.88;1.58;;;16.50;99.90;;;;;;5028999;28;20062;-75
2023/07/08 02:12:40;;;;;;;2.38;1.48;;;16.50;99.90;;;;;;5017841;28;20467;-75
2023/07/08 02:15:08;;;;;;;2.35;1.33;;;16.50;99.90;;;;;;5030428;28;20099;-75
2023/07/08 02:17:34;;;;;;;2.83;1.80;;;16.50;99.90;;;;;;5030207;28;20358;-75
2023/07/08 02:19:59;;;;;;;4.15;1.90;;;16.50;99.90;;;;;;5028776;28;20045;-75
2023/07/08 02:22:25;;;;;;;2.33;1.70;;;16.50;99.90;;;;;;5035756;28;20052;-75
2023/07/08 02:24:51;;;;;;;1.98;1.55;;;16.50;99.90;;;;;;5028572;28;20072;-75
2023/07/08 02:27:16;;;;;;;2.65;1.70;;;16.40;99.90;;;;;;5004044;28;20129;-75
2023/07/08 02:29:42;;;;;;;2.90;1.75;;;16.40;99.90;;;;;;5012550;28;20045;-75
2023/07/08 02:32:12;;;;;;;2.30;1.63;;;16.40;99.90;;;;;;5033273;28;20464;-75
2023/07/08 02:34:38;;;;;;;2.70;1.70;;;16.40;99.90;;;;;;5013084;28;20136;-75
2023/07/08 02:37:04;;;;;;;2.45;1.60;;;16.30;99.90;;;;;;5034973;28;20551;-75
2023/07/08 02:39:30;;;;;;;1.80;1.60;;;16.30;99.90;;;;;;5031240;28;20086;-75
2023/07/08 02:41:56;;;;;;;2.05;1.45;;;16.40;99.90;;;;;;4990715;28;20056;-75
2023/07/08 02:44:22;;;;;;;;;;;16.30;99.90;;;;;;5037876;28;20364;-75
2023/07/08 02:46:48;;;;;;;2.78;1.70;;;16.30;99.90;;;;;;5027893;28;20004;-75
2023/07/08 02:49:13;;;;;;;4.13;2.15;;;16.30;99.90;;;;;;5008585;28;20617;-75
2023/07/08 02:51:39;;;;;;;3.08;1.83;;;16.30;99.90;;;;;;5014793;28;20041;-75
2023/07/08 02:54:05;;;;;;;2.35;1.83;;;16.40;99.90;;;;;;5034242;28;20055;-75
2023/07/08 02:56:31;;;;;;;2.83;1.90;;;16.30;99.90;;;;;;5019749;28;20053;-75
2023/07/08 02:58:56;;;;;;;3.80;2.47;;;16.40;99.90;;;;;;5042312;28;20052;-75
2023/07/08 03:01:23;;;;;;;2.55;1.90;;;16.40;99.90;;;;;;5015726;28;20095;-75
2023/07/08 03:03:50;;;;;;;2.08;1.70;;;16.40;99.90;;;;;;5032502;28;20050;-75
2023/07/08 03:06:16;;;;;;;2.60;1.50;;;16.40;99.90;;;;;;5025952;28;20037;-75
2023/07/08 03:08:41;;;;;;;2.88;1.80;;;16.40;99.90;;;;;;5032782;28;20057;-75
2023/07/08 03:11:08;;;;;;;3.13;1.95;;;16.30;99.90;;;;;;5029854;28;20492;-75
2023/07/08 03:13:34;;;;;;;2.30;1.65;;;16.30;99.90;;;;;;5029786;28;20075;-75
2023/07/08 03:16:01;;;;;;;2.17;1.52;;;16.30;99.90;;;;;;4994824;28;20073;-75
2023/07/08 03:18:28;;;;;;;2.53;1.70;;;16.30;1.00;;;;;;5038220;28;20074;-75
2023/07/08 03:20:56;;;;;;;3.03;1.95;;;16.20;99.90;;;;;;5026780;28;20038;-75
2023/07/08 03:23:23;;;;;;;3.28;1.58;;;16.20;1.00;;;;;;5038760;28;20033;-75
2023/07/08 03:25:49;;;;;;;2.65;1.70;;;16.20;1.00;;;;;;5036196;28;20124;-75
2023/07/08 03:28:15;;;;;;;3.25;1.90;;;16.20;40.50;;;;;;5037707;28;20052;-75
2023/07/08 03:30:42;;;;;;;2.63;1.77;;;16.20;1.00;;;;;;5038267;28;20168;-75
2023/07/08 03:33:08;;;;;;;2.25;1.92;;;16.20;1.00;;;;;;5035534;28;20129;-75
2023/07/08 03:35:34;;;;;;;2.65;1.90;;;16.20;1.00;;;;;;5025282;28;20147;-75
2023/07/08 03:38:00;;;;;;;2.00;1.55;;;16.20;1.00;;;;;;5016891;28;20848;-75
2023/07/08 03:40:26;;;;;;;;;;;16.20;93.10;;;;;;5014935;28;20048;-75
2023/07/08 03:42:52;;;;;;;3.03;1.95;;;16.20;38.90;;;;;;5031924;28;19921;-75
2023/07/08 03:45:17;;;;;;;4.03;1.90;;;16.20;11.70;;;;;;5013912;28;20042;-75
2023/07/08 03:47:43;;;;;;;2.05;1.80;;;16.20;1.00;;;;;;4998451;28;20051;-75
2023/07/08 03:50:19;;;;;;;2.20;1.52;;;16.20;46.60;;;;;;5039595;28;20045;-76
2023/07/08 03:52:46;;;;;;;3.22;2.00;;;16.20;99.90;;;;;;5031270;28;20060;-75
2023/07/08 03:55:12;;;;;;;3.53;2.30;;;16.20;79.00;;;;;;5025758;28;20044;-76
2023/07/08 03:57:37;;;;;;;3.90;2.28;;;16.20;1.00;;;;;;5039561;28;20041;-76
2023/07/08 04:00:04;;;;;;;2.72;2.00;;;16.20;1.00;;;;;;5033114;28;20057;-75
2023/07/08 04:02:29;;;;;;;3.05;2.20;;;16.20;18.60;;;;;;5012977;28;20473;-75
2023/07/08 04:04:55;;;;;;;3.33;2.47;;;16.30;22.90;;;;;;5031447;28;20076;-76
2023/07/08 04:07:21;;;;;;;3.17;1.92;;;16.30;1.00;;;;;;5030937;28;20045;-76
2023/07/08 04:09:49;;;;;;;3.42;2.10;;;16.30;1.00;;;;;;5031868;28;20061;-75
2023/07/08 04:12:16;;;;;;;5.18;2.50;;;16.40;1.00;;;;;;5030612;28;20076;-75
2023/07/08 04:14:42;;;;;;;3.47;1.85;;;16.40;1.00;;;;;;5031643;28;20041;-75
2023/07/08 04:17:09;;;;;;;2.83;1.98;;;16.40;1.00;;;;;;5032833;28;20086;-75
2023/07/08 04:19:35;;;;;;;3.35;2.13;;;16.50;1.00;;;;;;5031585;28;20038;-75
2023/07/08 04:22:02;;;;;;;4.40;2.88;;;16.50;1.00;;;;;;5013494;28;20041;-75
2023/07/08 04:24:28;;;;;;;2.60;2.17;;;16.50;99.90;;;;;;5013488;28;20049;-75
2023/07/08 04:26:54;;;;;;;5.20;2.50;;;16.50;1.00;;;;;;5034148;28;20387;-75
2023/07/08 04:29:21;;;;;;;3.42;2.75;;;16.50;1.00;;;;;;5015240;28;20045;-75
2023/07/08 04:31:48;;;;;;;3.65;2.50;;;16.60;99.90;;;;;;5025421;28;20040;-76
2023/07/08 04:34:14;;;;;;;;;;;16.60;1.00;;;;;;5038973;28;20484;-76
2023/07/08 04:36:39;;;;;;;3.20;2.10;;;16.60;99.90;;;;;;5013587;28;20361;-76
2023/07/08 04:39:07;;;;;;;5.50;2.85;;;16.70;99.90;;;;;;5017959;28;20133;-76
2023/07/08 04:41:40;;;;;;;5.13;2.60;;;16.70;99.90;;;;;;5030332;28;20046;-76
2023/07/08 04:44:12;;;;;;;3.03;2.30;;;16.70;1.00;;;;;;5013773;28;20041;-76
2023/07/08 04:46:50;;;;;;;3.65;2.40;;;16.70;1.00;;;;;;5029999;28;20079;-76
2023/07/08 04:49:17;;;;;;;3.80;2.28;;;16.70;99.90;;;;;;5036644;28;20358;-75
2023/07/08 04:51:43;;;;;;;3.10;2.00;;;16.70;99.90;;;;;;5032517;28;20043;-76
2023/07/08 04:54:10;;;;;;;2.53;2.30;;;16.80;1.00;;;;;;5031276;28;20061;-76
2023/07/08 04:56:42;;;;;;;2.90;2.00;;;16.80;99.90;;;;;;5012457;28;20113;-75
2023/07/08 04:59:10;;;;;;;3.38;2.15;;;16.80;99.90;;;;;;5031540;28;20041;-75
2023/07/08 05:01:37;;;;;;;3.75;2.35;;;16.80;99.90;;;;;;5034435;28;20435;-75
2023/07/08 05:04:05;;;;;;;3.10;2.30;;;16.90;1.00;;;;;;5011687;28;20492;-75
2023/07/08 05:06:31;;;;;;;4.40;2.80;;;16.90;1.00;;;;;;5033502;28;20045;-75
2023/07/08 05:08:58;;;;;;;4.47;3.08;;;16.90;99.90;;;;;;5029490;28;20072;-75
2023/07/08 05:11:24;;;;;;;4.25;3.20;;;17.00;99.90;;;;;;5028849;28;20435;-75
2023/07/08 05:13:50;;;;;;;1.98;1.70;;;17.00;99.90;;;;;;5038794;28;20041;-75
2023/07/08 05:16:15;;;;;;;2.30;1.80;;;17.10;99.90;;;;;;4999111;28;20045;-76
2023/07/08 05:18:41;;;;;;;2.45;1.98;;;17.10;99.90;;;;;;5028254;28;20048;-77
2023/07/08 05:21:08;;;;;;;3.67;2.25;;;17.10;99.90;;;;;;5035364;28;20053;-77
2023/07/08 05:23:33;;;;;;;2.67;1.80;;;17.20;99.90;;;;;;5036425;28;20041;-77
2023/07/08 05:26:01;;;;;;;1.92;1.48;;;17.20;99.90;;;;;;5029997;28;20033;-77
2023/07/08 05:28:26;;;;;;;3.67;2.30;;;17.30;99.90;;;;;;5012381;28;20045;-77
2023/07/08 05:30:56;;;;;;;2.85;2.10;;;17.30;99.90;;;;;;4996801;28;20179;-77
2023/07/08 05:33:23;;;;;;;2.15;1.90;;;17.40;99.90;;;;;;5006821;28;20045;-77
2023/07/08 05:35:49;;;;;;;2.22;1.60;;;17.40;99.90;;;;;;5027320;28;20093;-77
2023/07/08 05:38:15;;;;;;;2.10;1.75;;;17.40;99.90;;;;;;5028262;28;20084;-77
2023/07/08 05:40:41;;;;;;;2.97;1.80;;;17.50;99.90;;;;;;5029186;28;20578;-77
2023/07/08 05:43:07;;;;;;;;;;;17.50;99.90;;;;;;5029457;28;20048;-77
2023/07/08 05:45:33;;;;;;;2.85;1.77;;;17.60;99.90;;;;;;5014307;28;19920;-77
2023/07/08 05:47:59;;;;;;;2.00;1.80;;;17.60;99.90;;;;;;5027276;28;20057;-77
2023/07/08 05:50:25;;;;;;;2.30;1.65;;;17.70;99.90;;;;;;5030391;28;20356;-75
2023/07/08 05:52:50;;;;;;;2.25;1.58;;;17.80;99.90;;;;;;5009428;28;20049;-75
2023/07/08 05:55:16;;;;;;;2.00;1.80;;;17.80;99.90;;;;;;5027101;28;20460;-75
2023/07/08 05:57:41;;;;;;;4.50;2.50;;;17.90;99.90;;;;;;5009616;28;20034;-75
2023/07/08 06:00:08;;;;;;;;;;;18.00;99.90;;;;;;5029169;28;20033;-75
2023/07/08 06:02:33;;;;;;;3.65;2.25;;;18.00;99.90;;;;;;5020788;28;19927;-75
2023/07/08 06:04:59;;;;;;;;;;;18.10;99.90;;;;;;5029071;28;20045;-75
2023/07/08 06:07:24;;;;;;;2.42;1.80;;;18.20;99.90;;;;;;5029921;28;19929;-75
2023/07/08 06:09:51;;;;;;;2.38;1.83;;;18.30;99.90;;;;;;5029508;28;20445;-75
2023/07/08 06:12:16;;;;;;;3.85;1.70;;;18.30;99.90;;;;;;5030600;28;20120;-75
2023/07/08 06:14:42;;;;;;;;;;;18.40;99.90;;;;;;5022986;28;20125;-75
2023/07/08 06:17:09;;;;;;;1.63;1.50;;;18.60;99.90;;;;;;5007097;28;19951;-75
2023/07/08 06:19:34;;;;;;;2.50;1.48;;;18.70;99.90;;;;;;5026775;28;20144;-76
2023/07/08 06:22:00;;;;;;;;;;;18.90;8.60;;;;;;5025820;28;20435;-75
2023/07/08 06:24:26;;;;;;;2.70;1.90;;;19.00;16.60;;;;;;5008820;28;20332;-75
2023/07/08 06:26:51;;;;;;;;;;;19.10;32.00;;;;;;5014870;28;20049;-75
2023/07/08 06:29:19;;;;;;;4.18;1.80;;;19.30;57.50;;;;;;5029123;28;19968;-75
2023/07/08 06:31:45;;;;;;;2.28;1.90;;;19.40;1.00;;;;;;5012995;28;20095;-75
2023/07/08 06:34:10;;;;;;;;;;;19.60;1.00;;;;;;5029858;28;20049;-75
2023/07/08 06:36:36;;;;;;;2.58;1.83;;;19.70;99.90;;;;;;5010974;28;19928;-76
2023/07/08 06:39:02;;;;;;;;;;;19.70;99.90;;;;;;5029754;28;20080;-75
2023/07/08 06:41:28;;;;;;;3.15;1.90;;;19.80;99.90;;;;;;5026686;28;19952;-75
2023/07/08 06:43:53;;;;;;;;;;;19.80;99.90;;;;;;5012787;28;20079;-76
2023/07/08 06:46:19;;;;;;;2.42;1.83;;;19.90;99.90;;;;;;5028338;28;19928;-75
2023/07/08 06:48:45;;;;;;;;;;;19.90;99.90;;;;;;5012009;28;20504;-76
2023/07/08 06:51:11;;;;;;;3.30;1.80;;;20.00;99.90;;;;;;5030045;28;20008;-75
2023/07/08 06:53:36;;;;;;;;;;;20.10;99.90;;;;;;5025672;28;20045;-75
2023/07/08 06:56:02;;;;;;;2.97;1.60;;;20.20;99.90;;;;;;5029423;28;19960;-75
2023/07/08 06:58:28;;;;;;;2.40;1.80;;;20.30;99.90;;;;;;5008846;28;20037;-75
2023/07/08 07:00:54;;;;;;;2.35;1.50;;;20.40;99.90;;;;;;5028517;28;20053;-75
2023/07/08 07:03:19;;;;;;;;;;;20.60;99.90;;;;;;5025939;28;20037;-75
2023/07/08 07:05:45;;;;;;;2.95;1.58;;;20.60;99.90;;;;;;5028724;28;20327;-76
2023/07/08 07:08:11;;;;;;;;;;;20.80;99.90;;;;;;5025631;28;20078;-75
2023/07/08 07:10:36;;;;;;;2.78;1.88;;;20.90;99.90;;;;;;5027411;28;19971;-76
2023/07/08 07:13:02;;;;;;;;;;;21.00;40.90;;;;;;5028499;28;20045;-76
2023/07/08 07:15:30;;;;;;;2.47;1.92;;;21.10;5.50;;;;;;5026189;28;19961;-76
2023/07/08 07:17:56;;;;;;;3.05;1.90;;;21.20;1.00;;;;;;5025523;28;20044;-76
2023/07/08 07:20:22;;;;;;;2.65;1.70;;;21.30;1.00;;;;;;5009683;28;20104;-76
2023/07/08 07:22:47;;;;;;;2.08;1.63;;;21.40;1.00;;;;;;5012451;28;20049;-75
2023/07/08 07:25:13;;;;;;;;;;;21.60;1.00;;;;;;5028983;28;20045;-76
2023/07/08 07:27:39;;;;;;;1.98;1.33;;;21.70;1.00;;;;;;5027364;28;20372;-76
2023/07/08 07:30:05;;;;;;;1.88;1.40;;;21.80;1.00;;;;;;5028688;28;20038;-76
2023/07/08 07:32:32;;;;;;;2.33;1.70;;;21.90;1.00;;;;;;5012989;28;20053;-76
2023/07/08 07:34:59;;;;;;;2.13;1.40;;;22.10;1.00;;;;;;5028313;28;20041;-76
2023/07/08 07:37:25;;;;;;;1.42;1.20;;;22.20;99.90;;;;;;5033431;28;20053;-76
2023/07/08 07:39:51;;;;;;;2.00;1.40;;;22.30;1.00;;;;;;5028171;28;20057;-73
2023/07/08 07:42:19;;;;;;;2.58;1.33;;;22.50;99.90;;;;;;5027325;28;20037;-73
2023/07/08 07:44:45;;;;;;;1.55;1.42;;;22.60;99.90;;;;;;5029520;28;20374;-76
2023/07/08 07:47:11;;;;;;;2.25;1.75;;;22.70;99.90;;;;;;5033022;28;20430;-74
2023/07/08 07:49:37;;;;;;;1.83;1.63;;;22.80;99.90;;;;;;5023520;28;20112;-74
2023/07/08 07:52:04;;;;;;;1.85;1.50;;;22.90;99.90;;;;;;5026459;28;20085;-74
2023/07/08 07:54:30;;;;;;;1.73;1.40;;;23.00;99.90;;;;;;5031474;28;20044;-74
2023/07/08 07:56:55;;;;;;;2.40;1.40;;;23.10;99.90;;;;;;5023319;28;20041;-74
2023/07/08 07:59:21;;;;;;;2.65;1.40;;;23.20;99.90;;;;;;5027706;28;20489;-74
2023/07/08 08:01:47;;;;;;;3.17;1.55;;;23.20;99.90;;;;;;5015109;28;20041;-74
2023/07/08 08:04:13;;;;;;;2.75;1.42;;;23.40;99.90;;;;;;5022362;28;20061;-75
2023/07/08 08:06:39;;;;;;;1.70;1.40;;;23.50;99.90;;;;;;5035970;28;20042;-75
2023/07/08 08:09:06;;;;;;;1.90;1.50;;;23.60;99.90;;;;;;5032583;28;20569;-75
2023/07/08 08:11:32;;;;;;;1.83;1.40;;;23.80;99.90;;;;;;5028875;28;20103;-75
2023/07/08 08:13:59;;;;;;;2.28;1.33;;;23.90;99.90;;;;;;5017718;28;20052;-75
2023/07/08 08:16:25;;;;;;;1.73;1.40;;;24.10;99.90;;;;;;5028292;28;20099;-75
2023/07/08 08:18:51;;;;;;;1.92;1.30;;;24.20;99.90;;;;;;5029767;28;20408;-75
2023/07/08 08:21:17;;;;;;;1.90;1.63;;;24.30;99.90;;;;;;5026847;28;20133;-75
2023/07/08 08:23:42;;;;;;;1.83;1.45;;;24.50;99.90;;;;;;5031088;28;20048;-75
2023/07/08 08:26:08;;;;;;;1.35;1.25;;;24.60;99.90;;;;;;5022960;28;20191;-75
2023/07/08 08:28:35;;;;;;;1.73;1.30;;;24.80;99.90;;;;;;5041660;28;20044;-75
2023/07/08 08:31:01;;;;;;;1.58;1.23;;;24.90;99.90;;;;;;5028235;28;20052;-74
2023/07/08 08:33:27;;;;;;;2.65;1.98;;;25.10;99.90;;;;;;5027213;28;20453;-74
2023/07/08 08:35:52;;;;;;;1.50;1.20;;;25.10;99.90;;;;;;5031449;28;20057;-74
2023/07/08 08:38:18;;;;;;;1.50;1.20;;;25.20;99.90;;;;;;5030621;28;20041;-74
2023/07/08 08:40:44;;;;;;;1.50;1.20;;;25.30;99.90;;;;;;5009646;28;20076;-74
2023/07/08 08:43:18;;;;;;;2.00;1.50;;;25.40;99.90;;;;;;5027023;28;20389;-74
2023/07/08 08:46:05;;;;;;;1.40;1.27;;;25.60;99.90;;;;;;5029872;28;20038;-74
2023/07/08 08:48:35;;;;;;;1.77;1.23;;;25.70;99.90;;;;;;5026214;28;20896;-74
2023/07/08 08:51:08;;;;;;;1.90;1.40;;;25.90;99.90;;;;;;5027926;28;20424;-74
2023/07/08 08:53:33;;;;;;;1.67;1.30;;;26.00;99.90;;;;;;5032647;28;20583;-74
2023/07/08 08:56:20;;;;;;;1.55;1.30;;;26.30;99.90;;;;;;5031832;28;20048;-74
2023/07/08 08:59:26;;;;;;;1.20;1.08;;;26.40;99.90;;;;;;5017031;28;20128;-74
2023/07/08 09:01:54;;;;;;;2.20;1.48;;;26.60;90.50;;;;;;5026125;28;20045;-74
2023/07/08 09:04:29;;;;;;;3.10;1.40;;;26.80;97.10;;;;;;5030194;28;20073;-75
2023/07/08 09:07:05;;;;;;;1.50;1.17;;;26.90;71.70;;;;;;5033232;28;20044;-75
2023/07/08 09:09:40;;;;;;;1.58;1.10;;;27.00;87.10;;;;;;5008656;28;20112;-74
2023/07/08 09:12:13;;;;;;;2.33;1.30;;;27.30;76.90;;;;;;5024469;28;20337;-75
2023/07/08 09:14:39;;;;;;;1.77;1.30;;;27.40;58.40;;;;;;5026283;28;20076;-75
2023/07/08 09:17:21;;;;;;;1.75;1.35;;;27.60;36.90;;;;;;5031379;28;20097;-75
2023/07/08 09:20:02;;;;;;;1.38;1.27;;;27.70;21.60;;;;;;5029388;28;20183;-73
2023/07/08 09:22:39;;;;;;;2.00;1.35;;;27.70;3.60;;;;;;5042715;28;20614;-74
2023/07/08 09:25:25;;;;;;;1.40;1.08;;;27.90;12.30;;;;;;5010890;28;20042;-74
2023/07/08 09:27:51;;;;;;;2.15;1.23;;;28.10;6.20;;;;;;5025491;28;20045;-74
2023/07/08 09:30:21;;;;;;;1.40;1.10;;;28.20;10.90;;;;;;5028747;28;20041;-74
2023/07/08 09:32:48;;;;;;;1.45;1.05;;;28.40;1.00;;;;;;5022135;28;20503;-74
2023/07/08 09:35:29;;;;;;;3.17;1.30;;;28.40;1.00;;;;;;5027376;28;20045;-75
2023/07/08 09:37:55;;;;;;;2.00;1.08;;;28.50;1.00;;;;;;5023100;28;20044;-75
2023/07/08 09:40:34;;;;;;;1.30;1.10;;;28.60;1.00;;;;;;5012725;28;20701;-75
2023/07/08 09:43:09;;;;;;;1.90;1.23;;;28.60;1.00;;;;;;5011482;28;20038;-75
2023/07/08 09:45:45;;;;;;;1.50;1.10;;;28.80;1.00;;;;;;5028705;28;20453;-75
2023/07/08 09:48:19;;;;;;;;;;;28.80;1.00;;;;;;5010566;28;20049;-76
2023/07/08 09:50:48;;;;;;;1.85;1.33;;;28.90;1.00;;;;;;5030022;28;20003;-76
2023/07/08 09:53:14;;;;;;;1.50;1.20;;;28.90;1.00;;;;;;5025491;28;20030;-76
2023/07/08 09:55:40;;;;;;;1.85;1.35;;;29.20;1.00;;;;;;5003033;28;20076;-76
2023/07/08 09:58:13;;;;;;;1.35;1.10;;;29.30;1.00;;;;;;5024692;28;20052;-76
2023/07/08 10:00:40;;;;;;;1.80;1.00;;;29.40;1.00;;;;;;5003234;28;20142;-76
2023/07/08 10:03:17;;;;;;;1.67;1.20;;;29.60;1.00;;;;;;5019307;28;20051;-73
2023/07/08 10:05:46;;;;;;;1.55;1.20;;;29.60;1.00;;;;;;5028508;28;20053;-74
2023/07/08 10:08:20;;;;;;;1.30;1.10;;;29.70;1.00;;;;;;5028882;28;20140;-74
2023/07/08 10:11:01;;;;;;;1.00;0.90;;;29.80;1.00;;;;;;5024466;28;20049;-74
2023/07/08 10:13:38;;;;;;;1.50;1.00;;;30.00;1.00;;;;;;5010215;28;20079;-74
2023/07/08 10:16:17;;;;;;;1.45;1.20;;;30.00;99.90;;;;;;5011569;28;20056;-73
2023/07/08 10:18:43;;;;;;;1.65;1.20;;;30.10;99.90;;;;;;5027566;28;20055;-74
2023/07/08 10:21:14;;;;;;;1.45;1.20;;;30.10;99.90;;;;;;5029685;28;20117;-75
2023/07/08 10:23:46;;;;;;;1.52;1.17;;;30.00;99.90;;;;;;5016568;28;20041;-74
2023/07/08 10:26:25;;;;;;;1.92;1.20;;;30.00;99.90;;;;;;5036591;28;20099;-76
2023/07/08 10:28:59;;;;;;;1.40;1.23;;;30.10;99.90;;;;;;5020508;28;20471;-75
2023/07/08 10:31:47;;;;;;;1.30;1.10;;;30.30;99.90;;;;;;5008859;28;20559;-74
2023/07/08 10:34:16;;;;;;;2.50;1.50;;;30.30;99.90;;;;;;5023290;28;20046;-75
2023/07/08 10:36:51;;;;;;;1.95;1.00;;;30.40;99.90;;;;;;5028828;28;20522;-74
2023/07/08 10:40:01;;;;;;;1.10;1.00;;;30.60;99.90;;;;;;5026247;28;20046;-75
2023/07/08 10:42:33;;;;;;;1.83;1.30;;;30.80;99.90;;;;;;5033252;28;20053;-75
2023/07/08 10:45:09;;;;;;;2.03;1.10;;;30.80;99.90;;;;;;5030822;28;20045;-75
2023/07/08 10:47:59;;;;;;;1.38;1.10;;;30.80;99.90;;;;;;5042260;28;20101;-75
2023/07/08 10:50:57;;;;;;;2.25;1.38;;;30.90;99.90;;;;;;5033683;28;20057;-75
2023/07/08 10:54:00;;;;;;;1.83;1.02;;;31.10;99.90;;;;;;5022114;28;20057;-74
2023/07/08 10:56:44;;;;;;;1.60;1.23;;;31.20;99.90;;;;;;5036810;28;20041;-74
2023/07/08 10:59:23;;;;;;;2.22;1.20;;;31.20;99.90;;;;;;5028705;28;20041;-75
2023/07/08 11:01:58;;;;;;;2.00;1.30;;;31.30;99.90;;;;;;5023999;28;20048;-74
2023/07/08 11:04:52;;;;;;;1.45;1.20;;;31.30;99.90;;;;;;5028510;28;20121;-75
2023/07/08 11:07:58;;;;;;;1.90;1.25;;;31.30;99.90;;;;;;5027077;28;20052;-74
2023/07/08 11:10:30;;;;;;;2.28;1.40;;;31.30;99.90;;;;;;4999025;28;20061;-75
2023/07/08 11:13:12;;;;;;;2.67;1.10;;;31.50;99.90;;;;;;5039261;28;20401;-74
2023/07/08 11:15:57;;;;;;;2.45;1.58;;;31.60;99.90;;;;;;5043738;28;20052;-75
2023/07/08 11:19:08;;;;;;;1.43;1.30;;;31.60;99.90;;;;;;5033585;28;20044;-74
2023/07/08 11:21:45;;;;;;;1.75;1.30;;;31.80;99.90;;;;;;5026628;28;20046;-74
2023/07/08 11:24:26;;;;;;;2.55;1.40;;;32.00;99.90;;;;;;5027905;28;20053;-76
2023/07/08 11:27:01;;;;;;;2.30;1.65;;;31.90;99.90;;;;;;5021340;28;20053;-75
2023/07/08 11:29:51;;;;;;;2.00;1.77;;;31.80;99.90;;;;;;5020368;28;20041;-75
2023/07/08 11:32:20;;;;;;;1.73;1.40;;;32.00;99.90;;;;;;5029603;28;20049;-75
2023/07/08 11:34:49;;;;;;;1.90;1.70;;;32.00;99.90;;;;;;5032658;28;20473;-76
2023/07/08 11:37:18;;;;;;;1.88;1.60;;;32.00;99.90;;;;;;5017609;28;20089;-76
2023/07/08 11:39:54;;;;;;;2.03;1.50;;;32.10;99.90;;;;;;5031294;28;20512;-74
2023/07/08 11:42:25;;;;;;;2.72;1.80;;;32.30;99.90;;;;;;5032865;28;20037;-75
2023/07/08 11:44:56;;;;;;;1.92;1.50;;;32.30;99.90;;;;;;5030188;28;20057;-75
2023/07/08 11:47:35;;;;;;;3.70;1.73;;;32.40;99.90;;;;;;5035623;28;20037;-75
2023/07/08 11:50:01;;;;;;;2.60;1.75;;;32.40;99.90;;;;;;5026246;28;20045;-75
2023/07/08 11:52:29;;;;;;;1.77;1.50;;;32.50;99.90;;;;;;5049893;28;20049;-75
2023/07/08 11:55:02;;;;;;;2.30;1.70;;;32.70;99.90;;;;;;5013212;28;20484;-75
2023/07/08 11:57:31;;;;;;;2.08;1.80;;;32.40;99.90;;;;;;5034616;28;20401;-75
2023/07/08 12:00:19;;;;;;;3.28;2.00;;;32.50;99.90;;;;;;5030981;28;20049;-75
2023/07/08 12:03:03;;;;;;;3.70;2.25;;;32.50;99.90;;;;;;5021822;28;20103;-75
2023/07/08 12:05:38;;;;;;;3.03;2.40;;;32.40;99.90;;;;;;5014757;28;20049;-75
2023/07/08 12:08:18;;;;;;;2.83;1.85;;;32.20;99.90;;;;;;5035304;28;20377;-75
2023/07/08 12:10:51;;;;;;;1.98;1.70;;;32.40;99.90;;;;;;5013860;28;20123;-75
2023/07/08 12:13:23;;;;;;;2.35;1.60;;;32.60;99.90;;;;;;5014023;28;20053;-75
2023/07/08 12:15:49;;;;;;;3.15;1.67;;;32.60;99.90;;;;;;5015447;28;20106;-76
2023/07/08 12:18:21;;;;;;;1.60;1.40;;;32.80;99.90;;;;;;5026112;28;20489;-75
2023/07/08 12:20:54;;;;;;;3.78;1.75;;;32.90;99.90;;;;;;5014559;28;20037;-76
2023/07/08 12:23:23;;;;;;;2.00;1.70;;;32.90;99.90;;;;;;5006760;28;20220;-76
2023/07/08 12:25:50;;;;;;;2.78;1.63;;;32.90;99.90;;;;;;5030174;28;21330;-76
2023/07/08 12:28:16;;;;;;;2.30;1.60;;;32.90;99.90;;;;;;5021413;28;20049;-76
2023/07/08 12:30:45;;;;;;;2.40;1.75;;;32.70;99.90;;;;;;5029712;28;20500;-76
2023/07/08 12:33:29;;;;;;;2.60;1.85;;;32.60;99.90;;;;;;5002242;28;20120;-76
2023/07/08 12:35:55;;;;;;;5.72;2.00;;;32.50;99.90;;;;;;5030791;28;20056;-76
2023/07/08 12:38:33;;;;;;;2.17;1.90;;;32.50;99.90;;;;;;5039506;28;20060;-76
2023/07/08 12:41:01;;;;;;;2.00;1.50;;;32.60;99.90;;;;;;5030301;28;20036;-76
2023/07/08 12:43:27;;;;;;;2.50;1.98;;;32.80;99.90;;;;;;5011841;28;20472;-76
2023/07/08 12:45:53;;;;;;;2.88;1.70;;;32.80;99.90;;;;;;5035769;28;20067;-75
2023/07/08 12:48:19;;;;;;;2.35;1.90;;;32.90;99.90;;;;;;4995631;28;20311;-75
2023/07/08 12:50:44;;;;;;;2.53;2.17;;;32.80;99.90;;;;;;5029785;28;20115;-75
2023/07/08 12:53:12;;;;;;;2.70;2.03;;;32.70;99.90;;;;;;5011271;28;20060;-76
2023/07/08 12:55:43;;;;;;;2.03;1.58;;;32.70;99.90;;;;;;5024723;28;20049;-75
2023/07/08 12:58:32;;;;;;;2.15;1.70;;;32.90;99.90;;;;;;5033681;28;20465;-76
2023/07/08 13:01:00;;;;;;;2.10;1.48;;;32.90;99.90;;;;;;5029431;28;20049;-76
2023/07/08 13:03:29;;;;;;;1.73;1.52;;;33.10;99.90;;;;;;5033134;28;20453;-76
2023/07/08 13:05:57;;;;;;;2.53;1.80;;;33.10;99.90;;;;;;5030132;28;20052;-76
2023/07/08 13:08:25;;;;;;;2.88;2.40;;;33.20;99.90;;;;;;5023155;28;20060;-76